createdAt,value
2019-01-23T00:00:53.058Z,-5.10
2019-01-23T00:03:22.177Z,-5.20
2019-01-23T00:05:51.428Z,-5.30
2019-01-23T00:08:20.448Z,-5.30
2019-01-23T00:10:49.603Z,-5.30
2019-01-23T00:13:18.699Z,-5.40
2019-01-23T00:15:47.841Z,-5.30
2019-01-23T00:18:16.957Z,-5.40
2019-01-23T00:20:46.298Z,-5.30
2019-01-23T00:23:15.512Z,-5.30
2019-01-23T00:25:44.639Z,-5.30
2019-01-23T00:28:13.771Z,-5.30
2019-01-23T00:30:43.744Z,-5.30
2019-01-23T00:33:12.897Z,-5.30
2019-01-23T00:35:42.047Z,-5.30
2019-01-23T00:38:11.652Z,-5.30
2019-01-23T00:40:40.525Z,-5.20
2019-01-23T00:43:09.518Z,-5.30
2019-01-23T00:45:38.517Z,-5.30
2019-01-23T00:48:07.664Z,-5.20
2019-01-23T00:50:36.742Z,-5.20
2019-01-23T00:53:05.856Z,-5.20
2019-01-23T00:55:35.709Z,-5.20
2019-01-23T00:58:04.949Z,-5.20
2019-01-23T01:00:34.080Z,-5.20
2019-01-23T01:03:03.238Z,-5.20
2019-01-23T01:05:32.353Z,-5.20
2019-01-23T01:08:01.503Z,-5.20
2019-01-23T01:10:30.557Z,-5.30
2019-01-23T01:12:59.698Z,-5.20
2019-01-23T01:15:28.811Z,-5.20
2019-01-23T01:17:57.986Z,-5.20
2019-01-23T01:20:27.124Z,-5.20
2019-01-23T01:22:56.258Z,-5.20
2019-01-23T01:25:25.394Z,-5.20
2019-01-23T01:27:54.433Z,-5.20
2019-01-23T01:30:24.650Z,-5.20
2019-01-23T01:32:53.625Z,-5.20
2019-01-23T01:35:22.701Z,-5.20
2019-01-23T01:37:51.765Z,-5.10
2019-01-23T01:40:21.103Z,-5.10
2019-01-23T01:42:50.234Z,-5.10
2019-01-23T01:45:19.397Z,-5.10
2019-01-23T01:47:48.504Z,-5.10
2019-01-23T01:50:19.365Z,-5.10
2019-01-23T01:52:48.788Z,-5.10
2019-01-23T01:55:18.019Z,-5.10
2019-01-23T01:57:47.356Z,-5.10
2019-01-23T02:00:18.784Z,-5.10
2019-01-23T02:02:47.930Z,-5.10
2019-01-23T02:05:17.289Z,-5.10
2019-01-23T02:07:46.546Z,-5.10
2019-01-23T02:10:18.538Z,-5.10
2019-01-23T02:12:48.006Z,-5.10
2019-01-23T02:15:17.920Z,-5.10
2019-01-23T02:17:47.061Z,-5.00
2019-01-23T02:20:18.742Z,-5.20
2019-01-23T02:22:47.956Z,-5.10
2019-01-23T02:25:17.390Z,-5.10
2019-01-23T02:31:48.100Z,-5.20
2019-01-23T02:34:36.577Z,-5.20
2019-01-23T02:37:24.862Z,-5.20
2019-01-23T02:40:35.110Z,-5.20
2019-01-23T02:46:21.041Z,-5.10
2019-01-23T02:49:01.734Z,-5.30
2019-01-23T02:51:42.855Z,-5.20
2019-01-23T02:57:29.302Z,-5.20
2019-01-23T03:03:33.142Z,-5.20
2019-01-23T03:06:14.381Z,-5.30
2019-01-23T03:12:06.671Z,-5.20
2019-01-23T03:14:47.831Z,-5.20
2019-01-23T03:17:32.325Z,-5.10
2019-01-23T03:20:13.453Z,-5.20
2019-01-23T03:22:54.161Z,-5.20
2019-01-23T03:25:34.734Z,-5.20
2019-01-23T03:28:34.927Z,-5.20
2019-01-23T03:31:16.052Z,-5.20
2019-01-23T03:37:05.297Z,-5.20
2019-01-23T03:39:45.942Z,-5.10
2019-01-23T03:42:26.504Z,-5.20
2019-01-23T03:45:08.007Z,-5.30
2019-01-23T03:47:49.190Z,-5.20
2019-01-23T03:50:30.629Z,-5.20
2019-01-23T03:55:55.398Z,-5.10
2019-01-23T03:58:36.611Z,-5.20
2019-01-23T04:01:26.822Z,-5.30
2019-01-23T04:04:17.415Z,-5.30
2019-01-23T04:07:05.800Z,-5.20
2019-01-23T04:09:54.029Z,-5.30
2019-01-23T04:13:02.417Z,-5.40
2019-01-23T04:15:50.696Z,-5.40
2019-01-23T04:18:38.996Z,-5.40
2019-01-23T04:21:27.275Z,-5.40
2019-01-23T04:24:15.577Z,-5.40
2019-01-23T04:27:03.849Z,-5.40
2019-01-23T04:29:52.110Z,-5.30
2019-01-23T04:35:29.845Z,-5.40
2019-01-23T04:38:18.016Z,-5.50
2019-01-23T04:41:06.340Z,-5.50
2019-01-23T04:46:29.529Z,-5.40
2019-01-23T04:51:59.372Z,-5.40
2019-01-23T04:54:40.548Z,-5.50
2019-01-23T04:57:21.996Z,-5.40
2019-01-23T05:00:02.574Z,-5.40
2019-01-23T05:02:44.066Z,-5.50
2019-01-23T05:05:24.623Z,-5.50
2019-01-23T05:08:05.610Z,-5.60
2019-01-23T05:10:47.439Z,-5.70
2019-01-23T05:13:28.222Z,-5.80
2019-01-23T05:16:09.115Z,-5.80
2019-01-23T05:18:49.729Z,-5.90
2019-01-23T05:21:33.316Z,-5.90
2019-01-23T05:24:14.390Z,-5.80
2019-01-23T05:26:55.299Z,-5.80
2019-01-23T05:29:36.059Z,-5.80
2019-01-23T05:32:19.548Z,-5.80
2019-01-23T05:35:00.331Z,-5.90
2019-01-23T05:37:41.906Z,-5.90
2019-01-23T05:40:23.298Z,-5.80
2019-01-23T05:43:04.340Z,-5.80
2019-01-23T05:45:45.038Z,-5.80
2019-01-23T05:48:25.880Z,-5.80
2019-01-23T05:51:07.060Z,-5.90
2019-01-23T05:53:47.777Z,-5.90
2019-01-23T06:00:07.044Z,-6.00
2019-01-23T06:02:48.905Z,-6.00
2019-01-23T06:05:30.048Z,-5.90
2019-01-23T06:08:10.872Z,-5.90
2019-01-23T06:10:51.700Z,-6.00
2019-01-23T06:13:32.710Z,-6.00
2019-01-23T06:16:14.066Z,-6.00
2019-01-23T06:21:57.092Z,-6.00
2019-01-23T06:24:37.956Z,-6.00
2019-01-23T06:27:18.911Z,-5.90
2019-01-23T06:30:00.354Z,-5.90
2019-01-23T06:33:00.913Z,-5.90
2019-01-23T06:39:01.589Z,-6.00
2019-01-23T06:41:43.958Z,-5.90
2019-01-23T06:44:24.547Z,-5.90
2019-01-23T06:47:05.197Z,-6.00
2019-01-23T06:50:05.567Z,-6.00
2019-01-23T06:52:46.077Z,-6.00
2019-01-23T06:55:26.834Z,-5.90
2019-01-23T06:58:07.653Z,-5.90
2019-01-23T07:01:08.056Z,-5.80
2019-01-23T07:07:13.581Z,-5.30
2019-01-23T07:09:43.736Z,-5.10
2019-01-23T07:12:24.266Z,-5.00
2019-01-23T07:15:05.157Z,-4.70
2019-01-23T07:17:46.471Z,-4.40
2019-01-23T07:20:46.445Z,-4.60
2019-01-23T07:23:27.811Z,-4.40
2019-01-23T07:29:13.932Z,-4.10
2019-01-23T07:31:54.750Z,-4.00
2019-01-23T07:37:55.017Z,-4.20
2019-01-23T07:43:55.744Z,-4.00
2019-01-23T07:46:36.294Z,-3.80
2019-01-23T07:49:17.850Z,-3.90
2019-01-23T07:51:49.050Z,-4.10
2019-01-23T07:54:21.548Z,-4.10
2019-01-23T07:57:09.845Z,-4.00
2019-01-23T07:59:58.148Z,-4.10
2019-01-23T08:02:46.713Z,-4.30
2019-01-23T08:05:35.007Z,-4.30
2019-01-23T08:08:23.450Z,-4.20
2019-01-23T08:11:11.774Z,-4.20
2019-01-23T08:14:00.111Z,-4.20
2019-01-23T08:16:50.137Z,-4.20
2019-01-23T08:19:38.477Z,-4.00
2019-01-23T08:22:26.797Z,-4.00
2019-01-23T08:27:49.755Z,-3.60
2019-01-23T08:30:20.309Z,-3.40
2019-01-23T08:32:49.431Z,-3.60
2019-01-23T08:35:19.808Z,-3.70
2019-01-23T08:37:49.250Z,-3.70
2019-01-23T08:40:18.464Z,-3.70
2019-01-23T08:42:47.553Z,-3.50
2019-01-23T08:45:16.725Z,-3.70
2019-01-23T08:47:45.846Z,-3.60
2019-01-23T08:50:48.341Z,-3.80
2019-01-23T08:53:17.525Z,-3.80
2019-01-23T08:55:53.251Z,-3.80
2019-01-23T08:58:17.605Z,-3.90
2019-01-23T09:00:47.704Z,-4.00
2019-01-23T09:03:16.773Z,-3.90
2019-01-23T09:05:45.846Z,-3.70
2019-01-23T09:08:14.922Z,-3.60
2019-01-23T09:10:44.081Z,-3.60
2019-01-23T09:13:13.199Z,-3.70
2019-01-23T09:15:42.276Z,-3.70
2019-01-23T09:18:11.420Z,-3.60
2019-01-23T09:20:40.646Z,-3.80
2019-01-23T09:23:09.698Z,-3.80
2019-01-23T09:25:38.850Z,-3.70
2019-01-23T09:28:07.918Z,-3.80
2019-01-23T09:30:40.676Z,-3.70
2019-01-23T09:33:36.373Z,-3.50
2019-01-23T09:36:15.986Z,-3.20
2019-01-23T09:39:09.046Z,-2.80
2019-01-23T09:41:57.159Z,-2.70
2019-01-23T09:44:51.315Z,-2.70
2019-01-23T09:47:25.548Z,-2.80
2019-01-23T09:50:24.469Z,-2.70
2019-01-23T09:53:13.429Z,-2.60
2019-01-23T09:55:42.846Z,-2.70
2019-01-23T09:58:12.269Z,-2.60
2019-01-23T10:00:41.344Z,-2.50
2019-01-23T10:03:10.463Z,-2.60
2019-01-23T10:05:39.569Z,-2.50
2019-01-23T10:08:08.788Z,-2.20
2019-01-23T10:10:37.774Z,-2.20
2019-01-23T10:13:07.032Z,-2.30
2019-01-23T10:15:40.044Z,-2.20
2019-01-23T10:18:09.198Z,-2.20
2019-01-23T10:20:38.306Z,-2.30
2019-01-23T10:23:07.456Z,-2.40
2019-01-23T10:25:36.509Z,-2.40
2019-01-23T10:28:05.630Z,-2.50
2019-01-23T10:30:34.773Z,-2.80
2019-01-23T10:33:03.828Z,-2.70
2019-01-23T10:35:33.089Z,-2.80
2019-01-23T10:38:02.170Z,-2.70
2019-01-23T10:40:31.322Z,-2.80
2019-01-23T10:43:01.177Z,-2.70
2019-01-23T10:45:30.466Z,-2.70
2019-01-23T10:47:59.522Z,-2.70
2019-01-23T10:50:28.689Z,-2.90
2019-01-23T10:52:57.739Z,-2.80
2019-01-23T10:55:26.909Z,-3.00
2019-01-23T10:57:55.968Z,-3.10
2019-01-23T11:00:25.251Z,-3.10
2019-01-23T11:02:54.223Z,-3.20
2019-01-23T11:05:23.781Z,-3.40
2019-01-23T11:07:52.969Z,-3.60
2019-01-23T11:10:23.196Z,-3.30
2019-01-23T11:12:52.448Z,-3.20
2019-01-23T11:15:21.790Z,-3.30
2019-01-23T11:17:51.004Z,-3.50
2019-01-23T11:20:20.603Z,-3.20
2019-01-23T11:22:49.742Z,-3.20
2019-01-23T11:25:18.885Z,-3.20
2019-01-23T11:27:48.286Z,-3.30
2019-01-23T11:30:23.216Z,-3.40
2019-01-23T11:32:52.498Z,-3.40
2019-01-23T11:35:21.633Z,-3.60
2019-01-23T11:37:50.923Z,-3.50
2019-01-23T11:40:26.040Z,-3.50
2019-01-23T11:42:55.173Z,-3.40
2019-01-23T11:45:24.303Z,-3.10
2019-01-23T11:47:53.408Z,-2.90
2019-01-23T11:50:23.194Z,-2.90
2019-01-23T11:52:52.670Z,-3.00
2019-01-23T11:55:21.825Z,-3.40
2019-01-23T11:57:50.975Z,-3.50
2019-01-23T12:00:21.580Z,-3.50
2019-01-23T12:02:50.716Z,-3.30
2019-01-23T12:05:21.512Z,-3.40
2019-01-23T12:07:50.970Z,-3.60
2019-01-23T12:10:21.664Z,-3.80
2019-01-23T12:12:50.840Z,-3.80
2019-01-23T12:15:21.894Z,-3.50
2019-01-23T12:17:51.041Z,-3.60
2019-01-23T12:20:20.658Z,-3.70
2019-01-23T12:22:50.007Z,-3.50
2019-01-23T12:25:19.153Z,-3.40
2019-01-23T12:27:48.321Z,-3.10
2019-01-23T12:30:20.370Z,-3.20
2019-01-23T12:32:49.367Z,-3.30
2019-01-23T12:35:18.497Z,-3.20
2019-01-23T12:37:47.576Z,-3.20
2019-01-23T12:40:16.880Z,-3.00
2019-01-23T12:42:46.010Z,-3.10
2019-01-23T12:45:20.693Z,-3.50
2019-01-23T12:47:49.999Z,-3.80
2019-01-23T12:50:21.929Z,-4.10
2019-01-23T12:52:51.064Z,-4.00
2019-01-23T12:55:20.196Z,-4.00
2019-01-23T12:57:49.262Z,-4.10
2019-01-23T13:00:21.485Z,-4.10
2019-01-23T13:02:50.805Z,-4.00
2019-01-23T13:05:21.498Z,-3.90
2019-01-23T13:07:50.827Z,-3.60
2019-01-23T13:10:21.033Z,-3.40
2019-01-23T13:12:50.408Z,-3.30
2019-01-23T13:15:22.065Z,-3.50
2019-01-23T13:17:51.477Z,-3.60
2019-01-23T13:20:21.673Z,-3.60
2019-01-23T13:22:51.085Z,-3.80
2019-01-23T13:25:24.023Z,-4.10
2019-01-23T13:27:54.209Z,-4.20
2019-01-23T13:30:25.630Z,-4.30
2019-01-23T13:32:55.026Z,-4.40
2019-01-23T13:35:27.110Z,-4.30
2019-01-23T13:37:56.657Z,-4.30
2019-01-23T13:40:28.595Z,-4.00
2019-01-23T13:42:58.071Z,-3.80
2019-01-23T13:45:28.043Z,-3.40
2019-01-23T13:47:57.744Z,-3.00
2019-01-23T13:50:27.121Z,-3.30
2019-01-23T13:52:56.554Z,-3.20
2019-01-23T13:55:26.120Z,-3.20
2019-01-23T13:57:55.539Z,-3.40
2019-01-23T14:00:28.343Z,-3.60
2019-01-23T14:02:58.042Z,-3.70
2019-01-23T14:05:27.522Z,-4.00
2019-01-23T14:07:57.220Z,-4.00
2019-01-23T14:10:26.594Z,-4.00
2019-01-23T14:12:55.956Z,-4.00
2019-01-23T14:15:36.877Z,-4.10
2019-01-23T14:18:07.317Z,-4.10
2019-01-23T14:20:36.745Z,-4.00
2019-01-23T14:23:06.648Z,-3.80
2019-01-23T14:25:36.073Z,-3.90
2019-01-23T14:28:05.796Z,-3.70
2019-01-23T14:30:41.096Z,-3.80
2019-01-23T14:33:10.465Z,-4.00
2019-01-23T14:35:41.859Z,-4.20
2019-01-23T14:38:11.229Z,-4.30
2019-01-23T14:40:40.634Z,-4.20
2019-01-23T14:43:10.103Z,-4.00
2019-01-23T14:45:39.489Z,-4.00
2019-01-23T14:48:08.895Z,-3.80
2019-01-23T14:50:38.281Z,-3.50
2019-01-23T14:53:07.686Z,-3.40
2019-01-23T14:55:37.082Z,-3.60
2019-01-23T14:58:06.462Z,-3.70
2019-01-23T15:00:36.166Z,-3.60
2019-01-23T15:03:06.072Z,-3.50
2019-01-23T15:05:35.456Z,-3.70
2019-01-23T15:08:05.128Z,-3.70
2019-01-23T15:10:34.529Z,-3.80
2019-01-23T15:13:04.525Z,-3.90
2019-01-23T15:15:33.931Z,-3.90
2019-01-23T15:18:03.318Z,-4.00
2019-01-23T15:20:35.588Z,-4.00
2019-01-23T15:23:05.298Z,-4.00
2019-01-23T15:25:34.796Z,-4.10
2019-01-23T15:28:04.378Z,-4.00
2019-01-23T15:30:33.854Z,-3.90
2019-01-23T15:33:03.222Z,-3.80
2019-01-23T15:35:32.648Z,-3.30
2019-01-23T15:38:02.014Z,-2.50
2019-01-23T15:40:36.372Z,-1.90
2019-01-23T15:43:05.752Z,-2.20
2019-01-23T15:45:35.153Z,-1.90
2019-01-23T15:48:04.562Z,-2.30
2019-01-23T15:50:33.973Z,-2.50
2019-01-23T15:53:03.369Z,-2.80
2019-01-23T15:55:32.737Z,-3.10
2019-01-23T15:58:02.130Z,-3.50
2019-01-23T16:00:32.889Z,-3.60
2019-01-23T16:03:02.283Z,-3.60
2019-01-23T16:05:31.660Z,-3.90
2019-01-23T16:08:01.059Z,-3.90
2019-01-23T16:10:31.121Z,-3.80
2019-01-23T16:13:00.611Z,-3.90
2019-01-23T16:15:30.736Z,-4.00
2019-01-23T16:18:00.169Z,-4.00
2019-01-23T16:20:29.543Z,-3.90
2019-01-23T16:22:59.038Z,-4.00
2019-01-23T16:25:28.419Z,-4.10
2019-01-23T16:27:57.809Z,-4.10
2019-01-23T16:30:33.298Z,-4.20
2019-01-23T16:33:02.790Z,-4.20
2019-01-23T16:35:38.321Z,-4.30
2019-01-23T16:38:03.384Z,-4.20
2019-01-23T16:40:33.184Z,-4.10
2019-01-23T16:43:03.109Z,-4.10
2019-01-23T16:45:32.466Z,-4.10
2019-01-23T16:48:01.937Z,-3.80
2019-01-23T16:50:31.294Z,-3.60
2019-01-23T16:53:00.662Z,-3.40
2019-01-23T16:55:30.069Z,-3.60
2019-01-23T16:58:00.243Z,-3.50
2019-01-23T17:00:29.758Z,-3.70
2019-01-23T17:02:59.846Z,-3.80
2019-01-23T17:05:31.076Z,-3.90
2019-01-23T17:08:03.230Z,-3.90
2019-01-23T17:10:32.846Z,-3.80
2019-01-23T17:13:02.235Z,-3.80
2019-01-23T17:15:31.618Z,-4.00
2019-01-23T17:18:01.001Z,-4.10
2019-01-23T17:20:45.549Z,-4.20
2019-01-23T17:23:14.957Z,-4.30
2019-01-23T17:25:44.338Z,-4.30
2019-01-23T17:28:15.103Z,-4.10
2019-01-23T17:30:44.485Z,-4.00
2019-01-23T17:33:13.864Z,-3.80
2019-01-23T17:35:43.251Z,-3.90
2019-01-23T17:38:13.796Z,-3.90
2019-01-23T17:40:43.177Z,-4.00
2019-01-23T17:43:13.872Z,-3.90
2019-01-23T17:45:43.242Z,-3.80
2019-01-23T17:48:14.041Z,-3.70
2019-01-23T17:50:43.497Z,-3.80
2019-01-23T17:53:12.882Z,-3.90
2019-01-23T17:55:42.482Z,-4.00
2019-01-23T17:58:13.708Z,-4.00
2019-01-23T18:01:02.159Z,-4.00
2019-01-23T18:03:31.806Z,-4.00
2019-01-23T18:06:01.190Z,-4.00
2019-01-23T18:08:30.541Z,-3.90
2019-01-23T18:10:59.932Z,-4.00
2019-01-23T18:13:29.317Z,-3.90
2019-01-23T18:16:07.361Z,-3.90
2019-01-23T18:18:36.757Z,-3.60
2019-01-23T18:21:06.157Z,-3.70
2019-01-23T18:23:35.541Z,-3.90
2019-01-23T18:26:05.301Z,-3.80
2019-01-23T18:28:34.669Z,-3.60
2019-01-23T18:31:43.733Z,-3.60
2019-01-23T18:35:00.234Z,-3.60
2019-01-23T18:38:14.600Z,-3.90
2019-01-23T18:41:24.967Z,-3.70
2019-01-23T18:44:33.575Z,-3.60
2019-01-23T18:47:40.464Z,-3.50
2019-01-23T18:50:41.086Z,-3.70
2019-01-23T18:53:10.569Z,-3.90
2019-01-23T18:55:40.053Z,-3.80
2019-01-23T18:58:09.517Z,-3.90
2019-01-23T19:00:39.105Z,-3.80
2019-01-23T19:03:08.478Z,-4.00
2019-01-23T19:05:37.889Z,-4.10
2019-01-23T19:08:09.657Z,-4.10
2019-01-23T19:10:39.052Z,-4.10
2019-01-23T19:13:08.620Z,-4.00
2019-01-23T19:15:38.019Z,-4.00
2019-01-23T19:18:07.585Z,-3.90
2019-01-23T19:20:37.096Z,-3.80
2019-01-23T19:23:06.460Z,-3.80
2019-01-23T19:25:35.901Z,-3.70
2019-01-23T19:28:05.585Z,-3.60
2019-01-23T19:30:35.041Z,-3.70
2019-01-23T19:33:04.741Z,-3.60
2019-01-23T19:35:34.154Z,-3.60
2019-01-23T19:38:03.514Z,-3.50
2019-01-23T19:40:35.072Z,-3.70
2019-01-23T19:43:04.557Z,-3.90
2019-01-23T19:45:33.954Z,-3.70
2019-01-23T19:48:03.336Z,-3.70
2019-01-23T19:50:33.106Z,-3.60
2019-01-23T19:53:02.624Z,-3.50
2019-01-23T19:55:32.082Z,-3.40
2019-01-23T19:58:04.394Z,-3.40
2019-01-23T20:00:32.562Z,-3.20
2019-01-23T20:03:01.945Z,-3.30
2019-01-23T20:05:32.433Z,-3.10
2019-01-23T20:08:01.808Z,-3.40
2019-01-23T20:10:31.242Z,-3.50
2019-01-23T20:13:02.718Z,-3.30
2019-01-23T20:15:32.491Z,-3.20
2019-01-23T20:18:05.568Z,-3.10
2019-01-23T20:20:34.982Z,-3.00
2019-01-23T20:23:04.377Z,-3.20
2019-01-23T20:25:33.846Z,-3.20
2019-01-23T20:31:16.595Z,-2.90
2019-01-23T20:34:05.264Z,-2.80
2019-01-23T20:39:48.201Z,-3.20
2019-01-23T20:42:36.899Z,-3.30
2019-01-23T20:45:25.505Z,-3.30
2019-01-23T20:51:08.185Z,-2.90
2019-01-23T20:53:49.072Z,-2.80
2019-01-23T20:56:30.739Z,-2.60
2019-01-23T20:59:11.375Z,-2.50
2019-01-23T21:01:52.233Z,-2.60
2019-01-23T21:04:33.734Z,-3.00
2019-01-23T21:07:14.435Z,-2.80
2019-01-23T21:09:55.116Z,-2.70
2019-01-23T21:12:35.925Z,-2.70
2019-01-23T21:15:16.820Z,-2.50
2019-01-23T21:20:35.190Z,-2.60
2019-01-23T21:23:04.747Z,-2.60
2019-01-23T21:25:34.131Z,-2.70
2019-01-23T21:28:03.534Z,-2.80
2019-01-23T21:30:32.994Z,-2.60
2019-01-23T21:33:02.363Z,-2.30
2019-01-23T21:35:32.041Z,-2.30
2019-01-23T21:38:01.481Z,-2.40
2019-01-23T21:40:32.773Z,-2.20
2019-01-23T21:43:02.932Z,-2.00
2019-01-23T21:45:34.706Z,-2.00
2019-01-23T21:48:04.202Z,-1.90
2019-01-23T21:50:33.601Z,-1.80
2019-01-23T21:53:03.112Z,-1.80
2019-01-23T21:55:32.500Z,-1.90
2019-01-23T21:58:01.892Z,-2.10
2019-01-23T22:00:34.278Z,-1.80
2019-01-23T22:03:04.855Z,-2.00
2019-01-23T22:05:34.163Z,-1.90
2019-01-23T22:08:03.694Z,-1.90
2019-01-23T22:10:33.093Z,-1.90
2019-01-23T22:13:02.582Z,-1.90
2019-01-23T22:15:32.033Z,-1.90
2019-01-23T22:18:01.400Z,-1.90
2019-01-23T22:20:30.762Z,-1.90
2019-01-23T22:23:00.186Z,-2.10
2019-01-23T22:25:29.640Z,-1.90
2019-01-23T22:27:59.017Z,-2.10
2019-01-23T22:30:29.779Z,-2.20
2019-01-23T22:32:59.177Z,-2.30
2019-01-23T22:35:28.592Z,-2.30
2019-01-23T22:37:57.988Z,-2.20
2019-01-23T22:40:27.493Z,-1.90
2019-01-23T22:42:56.853Z,-1.60
2019-01-23T22:45:26.249Z,-1.60
2019-01-23T22:47:55.605Z,-1.80
2019-01-23T22:50:26.650Z,-1.90
2019-01-23T22:52:56.005Z,-1.90
2019-01-23T22:55:25.395Z,-1.70
2019-01-23T22:57:54.761Z,-1.80
2019-01-23T23:00:43.074Z,-1.70
2019-01-23T23:03:15.315Z,-1.80
2019-01-23T23:05:44.674Z,-1.80
2019-01-23T23:08:14.073Z,-1.70
2019-01-23T23:10:43.439Z,-1.40
2019-01-23T23:13:12.827Z,-1.70
2019-01-23T23:15:42.198Z,-1.60
2019-01-23T23:18:11.560Z,-1.70
2019-01-23T23:20:40.996Z,-1.80
2019-01-23T23:23:10.362Z,-1.80
2019-01-23T23:25:39.761Z,-1.90
2019-01-23T23:28:09.126Z,-1.80
2019-01-23T23:30:38.549Z,-1.70
2019-01-23T23:33:07.917Z,-1.80
2019-01-23T23:35:37.289Z,-1.90
2019-01-23T23:38:06.676Z,-1.90
2019-01-23T23:40:36.378Z,-1.80
2019-01-23T23:43:05.837Z,-1.80
2019-01-23T23:45:35.231Z,-1.50
2019-01-23T23:48:04.912Z,-1.50
2019-01-23T23:50:34.329Z,-1.70
2019-01-23T23:53:03.698Z,-1.90
2019-01-23T23:55:33.129Z,-1.80
2019-01-23T23:58:02.781Z,-1.60
